createdAt,value
2022-12-18T00:01:26.352Z,31.13
2022-12-18T00:03:55.539Z,27.92
2022-12-18T00:06:28.945Z,28.50
2022-12-18T00:08:57.800Z,26.70
2022-12-18T00:11:27.265Z,24.52
2022-12-18T00:13:56.851Z,25.75
2022-12-18T00:16:25.998Z,24.90
2022-12-18T00:19:01.395Z,25.33
2022-12-18T00:21:30.432Z,23.85
2022-12-18T00:23:58.511Z,24.95
2022-12-18T00:26:34.562Z,25.08
2022-12-18T00:29:12.781Z,29.55
2022-12-18T00:31:39.968Z,28.73
2022-12-18T00:34:07.639Z,27.02
2022-12-18T00:36:36.021Z,26.03
2022-12-18T00:39:05.953Z,25.98
2022-12-18T00:41:51.927Z,25.20
2022-12-18T00:44:20.031Z,28.35
2022-12-18T00:46:49.416Z,28.33
2022-12-18T00:49:24.256Z,24.77
2022-12-18T00:51:51.825Z,26.52
2022-12-18T00:54:19.969Z,29.52
2022-12-18T00:56:50.259Z,26.30
2022-12-18T00:59:19.175Z,27.00
2022-12-18T01:01:47.242Z,26.90
2022-12-18T01:04:14.811Z,28.23
2022-12-18T01:06:41.992Z,24.85
2022-12-18T01:09:09.047Z,24.27
2022-12-18T01:11:37.639Z,25.92
2022-12-18T01:14:05.493Z,24.52
2022-12-18T01:16:32.803Z,25.33
2022-12-18T01:19:00.042Z,25.02
2022-12-18T01:21:28.281Z,27.30
2022-12-18T01:23:57.622Z,24.92
2022-12-18T01:26:26.333Z,25.20
2022-12-18T01:28:55.381Z,24.15
2022-12-18T01:31:29.895Z,23.48
2022-12-18T01:33:58.001Z,22.73
2022-12-18T01:36:30.668Z,22.65
2022-12-18T01:39:00.228Z,24.65
2022-12-18T01:41:52.103Z,23.47
2022-12-18T01:44:56.848Z,22.15
2022-12-18T01:47:26.660Z,22.50
2022-12-18T01:49:55.430Z,21.02
2022-12-18T01:52:23.634Z,23.15
2022-12-18T01:54:53.327Z,20.30
2022-12-18T01:57:21.669Z,21.85
2022-12-18T01:59:53.751Z,20.23
2022-12-18T02:02:22.298Z,23.20
2022-12-18T02:04:49.825Z,23.73
2022-12-18T02:08:02.697Z,24.33
2022-12-18T02:10:43.350Z,23.00
2022-12-18T02:13:24.846Z,22.33
2022-12-18T02:16:01.407Z,20.50
2022-12-18T02:18:39.548Z,20.00
2022-12-18T02:21:46.449Z,21.73
2022-12-18T02:24:20.039Z,22.10
2022-12-18T02:26:51.875Z,22.15
2022-12-18T02:29:30.824Z,21.45
2022-12-18T02:32:01.515Z,22.73
2022-12-18T02:34:32.513Z,19.27
2022-12-18T02:37:03.551Z,21.83
2022-12-18T02:39:33.592Z,21.13
2022-12-18T02:42:09.175Z,20.80
2022-12-18T02:44:47.273Z,19.90
2022-12-18T02:47:21.463Z,19.80
2022-12-18T02:50:25.601Z,21.42
2022-12-18T02:53:20.831Z,19.30
2022-12-18T02:56:02.786Z,20.70
2022-12-18T02:58:50.622Z,20.25
2022-12-18T03:01:38.348Z,19.63
2022-12-18T03:04:22.672Z,19.55
2022-12-18T03:06:57.318Z,20.02
2022-12-18T03:09:38.341Z,21.55
2022-12-18T03:12:31.904Z,20.03
2022-12-18T03:15:17.791Z,21.42
2022-12-18T03:17:52.019Z,19.73
2022-12-18T03:20:22.416Z,20.92
2022-12-18T03:22:54.030Z,20.35
2022-12-18T03:25:22.729Z,21.10
2022-12-18T03:27:58.824Z,20.73
2022-12-18T03:30:29.371Z,21.88
2022-12-18T03:33:09.987Z,21.83
2022-12-18T03:35:42.768Z,22.20
2022-12-18T03:38:12.719Z,21.15
2022-12-18T03:41:03.329Z,22.52
2022-12-18T03:44:07.819Z,20.80
2022-12-18T03:46:59.674Z,22.05
2022-12-18T03:49:35.773Z,20.30
2022-12-18T03:52:27.215Z,21.80
2022-12-18T03:54:56.724Z,21.00
2022-12-18T03:57:29.101Z,21.67
2022-12-18T04:00:07.637Z,18.95
2022-12-18T04:03:05.803Z,19.13
2022-12-18T04:05:45.093Z,21.00
2022-12-18T04:08:13.693Z,19.50
2022-12-18T04:10:44.379Z,20.65
2022-12-18T04:13:12.618Z,21.17
2022-12-18T04:15:40.899Z,19.95
2022-12-18T04:18:11.581Z,20.95
2022-12-18T04:20:42.124Z,21.08
2022-12-18T04:23:09.285Z,22.98
2022-12-18T04:25:37.708Z,22.42
2022-12-18T04:28:08.112Z,21.23
2022-12-18T04:30:36.727Z,21.00
2022-12-18T04:33:03.890Z,20.38
2022-12-18T04:35:32.404Z,22.77
2022-12-18T04:37:59.963Z,21.43
2022-12-18T04:40:27.973Z,21.88
2022-12-18T04:42:55.689Z,22.10
2022-12-18T04:45:22.762Z,21.30
2022-12-18T04:47:49.898Z,20.83
2022-12-18T04:50:18.351Z,21.77
2022-12-18T04:52:46.240Z,21.73
2022-12-18T04:55:14.043Z,22.55
2022-12-18T04:57:41.077Z,21.77
2022-12-18T05:00:08.986Z,19.92
2022-12-18T05:02:36.198Z,21.67
2022-12-18T05:05:03.774Z,18.90
2022-12-18T05:07:30.884Z,21.10
2022-12-18T05:09:57.938Z,20.30
2022-12-18T05:12:25.016Z,20.73
2022-12-18T05:14:52.112Z,19.42
2022-12-18T05:17:19.180Z,23.47
2022-12-18T05:19:46.264Z,19.20
2022-12-18T05:22:13.333Z,19.80
2022-12-18T05:24:40.505Z,20.00
2022-12-18T05:27:07.854Z,20.35
2022-12-18T05:29:34.919Z,20.35
2022-12-18T05:32:02.022Z,19.97
2022-12-18T05:34:29.076Z,20.58
2022-12-18T05:36:56.143Z,21.77
2022-12-18T05:39:23.348Z,20.88
2022-12-18T05:41:50.408Z,21.70
2022-12-18T05:44:17.474Z,22.48
2022-12-18T05:46:44.592Z,22.50
2022-12-18T05:49:11.705Z,22.65
2022-12-18T05:51:38.804Z,24.67
2022-12-18T05:54:06.455Z,23.98
2022-12-18T05:56:33.672Z,24.92
2022-12-18T05:59:01.161Z,25.77
2022-12-18T06:01:28.528Z,25.77
2022-12-18T06:03:56.672Z,26.95
2022-12-18T06:06:27.608Z,27.05
2022-12-18T06:08:55.541Z,30.73
2022-12-18T06:11:27.342Z,30.00
2022-12-18T06:13:58.768Z,29.97
2022-12-18T06:16:27.688Z,27.27
2022-12-18T06:18:58.721Z,28.33
2022-12-18T06:21:27.968Z,28.87
2022-12-18T06:23:55.058Z,28.00
2022-12-18T06:26:27.824Z,27.87
2022-12-18T06:28:55.371Z,28.50
2022-12-18T06:31:22.603Z,27.08
2022-12-18T06:33:49.804Z,28.00
2022-12-18T06:36:17.760Z,28.77
2022-12-18T06:38:45.817Z,28.93
2022-12-18T06:41:17.738Z,30.40
2022-12-18T06:43:45.572Z,29.00
2022-12-18T06:46:13.702Z,28.07
2022-12-18T06:48:41.295Z,30.53
2022-12-18T06:51:08.435Z,29.90
2022-12-18T06:53:35.484Z,29.77
2022-12-18T06:56:10.193Z,28.40
2022-12-18T06:58:38.528Z,29.55
2022-12-18T07:01:07.962Z,28.27
2022-12-18T07:03:35.184Z,29.08
2022-12-18T07:06:02.356Z,30.47
2022-12-18T07:08:31.229Z,31.57
2022-12-18T07:10:58.868Z,34.92
2022-12-18T07:13:25.935Z,26.73
2022-12-18T07:15:53.081Z,30.55
2022-12-18T07:18:20.159Z,27.38
2022-12-18T07:20:47.765Z,26.27
2022-12-18T07:23:15.950Z,24.52
2022-12-18T07:25:43.033Z,23.80
2022-12-18T07:28:15.648Z,23.73
2022-12-18T07:30:44.381Z,24.00
2022-12-18T07:33:11.595Z,23.55
2022-12-18T07:35:38.707Z,23.15
2022-12-18T07:38:06.133Z,23.40
2022-12-18T07:40:33.142Z,22.67
2022-12-18T07:43:00.180Z,23.90
2022-12-18T07:45:27.273Z,23.05
2022-12-18T07:47:54.352Z,24.30
2022-12-18T07:50:21.450Z,26.17
2022-12-18T07:52:48.549Z,25.02
2022-12-18T07:55:15.741Z,27.33
2022-12-18T07:57:50.410Z,25.87
2022-12-18T08:00:18.633Z,24.98
2022-12-18T08:02:45.836Z,28.83
2022-12-18T08:05:12.989Z,27.15
2022-12-18T08:07:40.509Z,31.83
2022-12-18T08:10:08.240Z,39.50
2022-12-18T08:12:35.415Z,43.87
2022-12-18T08:15:02.473Z,34.50
2022-12-18T08:17:29.819Z,32.60
2022-12-18T08:19:56.883Z,36.60
2022-12-18T08:22:24.060Z,31.45
2022-12-18T08:24:51.112Z,33.03
2022-12-18T08:27:29.432Z,27.50
2022-12-18T08:29:57.901Z,25.93
2022-12-18T08:32:26.221Z,27.13
2022-12-18T08:34:53.424Z,25.98
2022-12-18T08:37:20.672Z,25.73
2022-12-18T08:39:47.830Z,25.17
2022-12-18T08:42:33.296Z,25.65
2022-12-18T08:45:00.474Z,25.15
2022-12-18T08:47:27.502Z,23.60
2022-12-18T08:49:54.613Z,26.27
2022-12-18T08:52:24.842Z,25.35
2022-12-18T08:54:52.160Z,23.30
2022-12-18T08:57:19.289Z,25.77
2022-12-18T08:59:46.354Z,25.02
2022-12-18T09:02:13.549Z,24.60
2022-12-18T09:04:41.108Z,27.75
2022-12-18T09:07:08.217Z,25.73
2022-12-18T09:09:35.272Z,28.80
2022-12-18T09:12:02.378Z,28.40
2022-12-18T09:14:29.411Z,25.52
2022-12-18T09:16:56.528Z,26.50
2022-12-18T09:19:23.683Z,26.35
2022-12-18T09:21:50.782Z,25.17
2022-12-18T09:24:17.891Z,24.67
2022-12-18T09:26:47.190Z,26.40
2022-12-18T09:29:16.201Z,26.02
2022-12-18T09:31:43.948Z,27.55
2022-12-18T09:34:11.027Z,27.42
2022-12-18T09:36:38.675Z,25.83
2022-12-18T09:39:08.613Z,26.13
2022-12-18T09:41:43.950Z,27.48
2022-12-18T09:44:23.089Z,27.33
2022-12-18T09:47:07.834Z,27.95
2022-12-18T09:49:40.663Z,31.47
2022-12-18T09:52:20.480Z,32.08
2022-12-18T09:54:54.770Z,30.60
2022-12-18T09:57:24.411Z,24.48
2022-12-18T10:00:15.060Z,26.80
2022-12-18T10:02:42.493Z,25.83
2022-12-18T10:05:16.097Z,26.95
2022-12-18T10:07:55.284Z,26.30
2022-12-18T10:10:53.990Z,26.48
2022-12-18T10:13:46.315Z,28.35
2022-12-18T10:16:48.724Z,27.10
2022-12-18T10:19:50.546Z,27.38
2022-12-18T10:22:39.547Z,28.33
2022-12-18T10:25:23.952Z,26.42
2022-12-18T10:27:56.369Z,27.63
2022-12-18T10:30:25.740Z,26.00
2022-12-18T10:32:53.587Z,26.75
2022-12-18T10:35:23.663Z,28.33
2022-12-18T10:38:13.491Z,28.42
2022-12-18T10:40:59.688Z,27.63
2022-12-18T10:43:33.751Z,28.60
2022-12-18T10:46:09.249Z,27.85
2022-12-18T10:48:48.652Z,29.90
2022-12-18T10:51:24.525Z,28.00
2022-12-18T10:54:07.866Z,29.58
2022-12-18T10:56:37.388Z,30.67
2022-12-18T10:59:13.299Z,30.40
2022-12-18T11:01:57.321Z,29.38
2022-12-18T11:04:25.682Z,29.98
2022-12-18T11:07:04.036Z,34.28
2022-12-18T11:09:39.321Z,31.15
2022-12-18T11:12:19.087Z,29.60
2022-12-18T11:14:51.992Z,31.45
2022-12-18T11:17:27.058Z,29.30
2022-12-18T11:19:59.273Z,24.55
2022-12-18T11:22:34.877Z,26.70
2022-12-18T11:25:34.440Z,23.77
2022-12-18T11:27:54.739Z,25.33
2022-12-18T11:30:26.181Z,25.02
2022-12-18T11:33:16.564Z,23.85
2022-12-18T11:35:46.830Z,22.50
2022-12-18T11:38:29.955Z,21.40
2022-12-18T11:41:48.973Z,22.10
2022-12-18T11:44:49.907Z,22.67
2022-12-18T11:47:35.165Z,24.25
2022-12-18T11:50:04.270Z,21.95
2022-12-18T11:52:41.654Z,25.40
2022-12-18T11:55:17.630Z,26.38
2022-12-18T11:57:56.749Z,22.35
2022-12-18T12:00:25.438Z,23.40
2022-12-18T12:03:14.198Z,26.50
2022-12-18T12:05:56.285Z,26.95
2022-12-18T12:08:41.614Z,25.77
2022-12-18T12:11:22.266Z,26.30
2022-12-18T12:14:01.275Z,28.58
2022-12-18T12:16:54.419Z,28.42
2022-12-18T12:19:47.480Z,30.58
2022-12-18T12:22:24.152Z,30.13
2022-12-18T12:25:26.581Z,28.30
2022-12-18T12:28:14.648Z,28.95
2022-12-18T12:30:50.636Z,30.52
2022-12-18T12:33:49.794Z,29.98
2022-12-18T12:36:35.878Z,32.13
2022-12-18T12:39:08.698Z,32.75
2022-12-18T12:41:58.327Z,34.47
2022-12-18T12:44:33.715Z,35.65
2022-12-18T12:47:06.531Z,31.95
2022-12-18T12:49:39.086Z,30.88
2022-12-18T12:52:15.310Z,30.60
2022-12-18T12:54:43.319Z,29.50
2022-12-18T12:57:57.263Z,33.08
2022-12-18T13:00:26.852Z,35.38
2022-12-18T13:03:00.362Z,38.55
2022-12-18T13:05:47.160Z,42.95
2022-12-18T13:08:31.095Z,37.20
2022-12-18T13:11:19.692Z,38.00
2022-12-18T13:13:56.635Z,32.30
2022-12-18T13:16:26.082Z,30.42
2022-12-18T13:18:55.551Z,33.08
2022-12-18T13:21:28.197Z,33.10
2022-12-18T13:23:56.828Z,33.80
2022-12-18T13:26:28.815Z,34.30
2022-12-18T13:28:58.581Z,33.17
2022-12-18T13:31:41.184Z,32.38
2022-12-18T13:34:28.226Z,33.08
2022-12-18T13:37:17.844Z,35.05
2022-12-18T13:39:45.206Z,33.93
2022-12-18T13:42:32.975Z,32.03
2022-12-18T13:45:00.566Z,32.50
2022-12-18T13:47:34.799Z,32.28
2022-12-18T13:53:24.662Z,35.90
2022-12-18T13:55:53.344Z,39.05
2022-12-18T13:58:20.886Z,33.67
2022-12-18T14:00:48.350Z,33.67
2022-12-18T14:03:24.896Z,35.50
2022-12-18T14:06:01.385Z,34.53
2022-12-18T14:08:34.247Z,35.35
2022-12-18T14:11:02.724Z,35.22
2022-12-18T14:13:33.196Z,33.80
2022-12-18T14:16:04.045Z,35.58
2022-12-18T14:18:53.495Z,34.67
2022-12-18T14:21:29.482Z,33.20
2022-12-18T14:24:09.987Z,34.83
2022-12-18T14:26:37.094Z,34.40
2022-12-18T14:29:30.436Z,35.95
2022-12-18T14:32:18.652Z,34.20
2022-12-18T14:34:48.383Z,115.60
2022-12-18T14:37:18.182Z,51.80
2022-12-18T14:40:11.121Z,45.37
2022-12-18T14:42:39.001Z,77.20
2022-12-18T14:45:43.247Z,87.70
2022-12-18T14:48:27.258Z,78.10
2022-12-18T14:51:07.686Z,67.53
2022-12-18T14:53:53.616Z,47.30
2022-12-18T14:56:23.424Z,53.80
2022-12-18T14:58:54.334Z,46.20
2022-12-18T15:01:25.385Z,42.90
2022-12-18T15:03:54.361Z,36.87
2022-12-18T15:06:39.785Z,39.87
2022-12-18T15:09:24.881Z,35.60
2022-12-18T15:11:57.892Z,38.75
2022-12-18T15:14:41.898Z,97.87
2022-12-18T15:17:20.867Z,43.72
2022-12-18T15:19:49.882Z,40.03
2022-12-18T15:22:30.814Z,40.00
2022-12-18T15:24:59.520Z,43.60
2022-12-18T15:27:36.898Z,41.53
2022-12-18T15:30:10.027Z,37.83
2022-12-18T15:32:44.387Z,35.53
2022-12-18T15:37:50.627Z,57.97
2022-12-18T15:40:21.107Z,38.00
2022-12-18T15:43:08.591Z,37.13
2022-12-18T15:45:35.666Z,36.53
2022-12-18T15:48:22.711Z,43.33
2022-12-18T15:50:53.253Z,38.30
2022-12-18T15:53:20.831Z,43.23
2022-12-18T15:56:06.322Z,38.33
2022-12-18T15:58:34.396Z,41.87
2022-12-18T16:01:02.159Z,57.40
2022-12-18T16:03:29.615Z,43.30
2022-12-18T16:05:56.985Z,41.13
2022-12-18T16:08:25.348Z,39.07
2022-12-18T16:10:52.719Z,40.77
2022-12-18T16:13:21.286Z,39.80
2022-12-18T16:15:48.739Z,43.13
2022-12-18T16:18:16.001Z,40.53
2022-12-18T16:20:43.161Z,41.27
2022-12-18T16:23:10.190Z,42.20
2022-12-18T16:25:37.497Z,46.80
2022-12-18T16:28:07.660Z,43.80
2022-12-18T16:30:38.197Z,42.70
2022-12-18T16:33:07.652Z,45.47
2022-12-18T16:35:34.996Z,43.90
2022-12-18T16:38:02.053Z,44.87
2022-12-18T16:40:29.127Z,45.00
2022-12-18T16:42:56.261Z,48.40
2022-12-18T16:45:23.316Z,45.47
2022-12-18T16:47:50.423Z,45.77
2022-12-18T16:50:17.610Z,49.20
2022-12-18T16:52:44.709Z,47.23
2022-12-18T16:55:11.834Z,50.03
2022-12-18T16:57:39.024Z,46.60
2022-12-18T17:00:07.052Z,50.27
2022-12-18T17:02:34.395Z,48.60
2022-12-18T17:05:01.949Z,48.67
2022-12-18T17:07:29.307Z,48.97
2022-12-18T17:09:56.877Z,97.93
2022-12-18T17:12:24.030Z,83.00
2022-12-18T17:14:51.252Z,46.57
2022-12-18T17:17:21.341Z,45.47
2022-12-18T17:19:51.019Z,44.57
2022-12-18T17:22:18.355Z,47.87
2022-12-18T17:24:46.370Z,50.50
2022-12-18T17:27:13.525Z,47.63
2022-12-18T17:29:46.806Z,44.93
2022-12-18T17:32:15.792Z,46.00
2022-12-18T17:34:42.876Z,46.20
2022-12-18T17:37:09.972Z,49.73
2022-12-18T17:39:37.486Z,46.33
2022-12-18T17:42:05.250Z,46.67
2022-12-18T17:44:34.459Z,49.83
2022-12-18T17:47:01.945Z,42.53
2022-12-18T17:49:29.307Z,44.50
2022-12-18T17:51:56.455Z,44.43
2022-12-18T17:54:23.497Z,47.10
2022-12-18T17:56:50.564Z,46.30
2022-12-18T17:59:17.661Z,43.03
2022-12-18T18:01:46.165Z,45.30
2022-12-18T18:04:14.247Z,44.87
2022-12-18T18:06:41.584Z,47.73
2022-12-18T18:09:15.943Z,55.50
2022-12-18T18:12:03.725Z,45.80
2022-12-18T18:14:31.131Z,46.47
2022-12-18T18:16:59.848Z,46.87
2022-12-18T18:19:32.370Z,48.77
2022-12-18T18:21:59.548Z,48.70
2022-12-18T18:24:26.713Z,46.50
2022-12-18T18:26:59.091Z,51.50
2022-12-18T18:29:27.879Z,50.53
2022-12-18T18:31:57.078Z,51.27
2022-12-18T18:34:26.389Z,54.00
2022-12-18T18:36:54.061Z,49.70
2022-12-18T18:39:21.289Z,56.40
2022-12-18T18:41:48.840Z,95.97
2022-12-18T18:44:16.842Z,77.27
2022-12-18T18:46:45.640Z,67.67
2022-12-18T18:49:14.355Z,52.37
2022-12-18T18:51:42.411Z,58.60
2022-12-18T18:54:10.165Z,56.07
2022-12-18T18:59:29.697Z,53.80
2022-12-18T19:04:31.967Z,52.00
2022-12-18T19:06:59.115Z,49.27
2022-12-18T19:09:26.634Z,51.70
2022-12-18T19:12:12.675Z,49.83
2022-12-18T19:14:39.899Z,51.97
2022-12-18T19:17:07.031Z,55.53
2022-12-18T19:19:34.283Z,49.10
2022-12-18T19:22:01.633Z,50.20
2022-12-18T19:24:28.844Z,50.27
2022-12-18T19:26:57.929Z,47.63
2022-12-18T19:29:25.743Z,49.20
2022-12-18T19:31:53.006Z,49.03
2022-12-18T19:34:20.191Z,49.33
2022-12-18T19:36:47.372Z,47.40
2022-12-18T19:39:19.221Z,48.07
2022-12-18T19:41:46.738Z,52.37
2022-12-18T19:44:18.153Z,50.40
2022-12-18T19:46:48.908Z,47.80
2022-12-18T19:49:18.107Z,47.83
2022-12-18T19:51:45.924Z,48.50
2022-12-18T19:54:17.182Z,51.17
2022-12-18T19:56:45.777Z,50.17
2022-12-18T19:59:13.599Z,47.63
2022-12-18T20:01:41.070Z,51.13
2022-12-18T20:04:08.405Z,49.00
2022-12-18T20:06:47.557Z,49.20
2022-12-18T20:09:15.223Z,47.10
2022-12-18T20:11:42.970Z,49.10
2022-12-18T20:14:11.696Z,46.50
2022-12-18T20:16:39.323Z,51.43
2022-12-18T20:19:09.598Z,51.87
2022-12-18T20:21:37.232Z,48.53
2022-12-18T20:24:04.672Z,50.77
2022-12-18T20:26:31.851Z,48.07
2022-12-18T20:28:59.047Z,50.33
2022-12-18T20:31:26.378Z,50.93
2022-12-18T20:33:54.564Z,56.10
2022-12-18T20:36:27.030Z,56.13
2022-12-18T20:38:58.127Z,52.07
2022-12-18T20:41:33.503Z,52.53
2022-12-18T20:44:05.942Z,51.87
2022-12-18T20:46:36.769Z,53.53
2022-12-18T20:49:03.804Z,54.97
2022-12-18T20:51:31.838Z,52.13
2022-12-18T20:53:59.822Z,55.60
2022-12-18T20:56:30.862Z,57.07
2022-12-18T20:59:00.020Z,80.97
2022-12-18T21:01:29.409Z,64.27
2022-12-18T21:03:56.586Z,52.93
2022-12-18T21:06:25.107Z,54.63
2022-12-18T21:08:52.715Z,54.57
2022-12-18T21:11:37.977Z,54.03
2022-12-18T21:14:20.261Z,69.33
2022-12-18T21:16:48.176Z,114.90
2022-12-18T21:19:20.096Z,76.93
2022-12-18T21:21:47.568Z,56.50
2022-12-18T21:24:15.285Z,57.70
2022-12-18T21:26:45.654Z,59.77
2022-12-18T21:29:16.323Z,65.40
2022-12-18T21:31:44.786Z,50.70
2022-12-18T21:34:17.463Z,56.50
2022-12-18T21:36:49.204Z,53.23
2022-12-18T21:39:16.782Z,56.87
2022-12-18T21:42:02.875Z,54.20
2022-12-18T21:44:30.341Z,49.27
2022-12-18T21:47:09.399Z,51.87
2022-12-18T21:49:41.732Z,51.40
2022-12-18T21:52:10.790Z,56.90
2022-12-18T21:54:37.897Z,53.07
2022-12-18T21:57:08.590Z,53.47
2022-12-18T21:59:38.858Z,53.30
2022-12-18T22:02:12.293Z,70.47
2022-12-18T22:04:40.143Z,52.30
2022-12-18T22:07:07.869Z,58.40
2022-12-18T22:09:35.407Z,57.73
2022-12-18T22:12:03.020Z,56.10
2022-12-18T22:14:30.082Z,51.90
2022-12-18T22:16:57.574Z,52.47
2022-12-18T22:19:25.745Z,53.80
2022-12-18T22:21:53.776Z,50.27
2022-12-18T22:24:26.837Z,55.30
2022-12-18T22:27:01.782Z,63.63
2022-12-18T22:29:47.975Z,49.83
2022-12-18T22:32:21.430Z,50.43
2022-12-18T22:35:09.203Z,47.70
2022-12-18T22:37:37.633Z,50.47
2022-12-18T22:40:07.237Z,53.10
2022-12-18T22:42:34.627Z,52.80
2022-12-18T22:45:01.738Z,50.83
2022-12-18T22:47:30.424Z,54.57
2022-12-18T22:49:58.658Z,52.97
2022-12-18T22:52:25.886Z,54.63
2022-12-18T22:54:54.263Z,51.57
2022-12-18T22:57:24.872Z,54.60
2022-12-18T22:59:51.967Z,57.77
2022-12-18T23:02:20.853Z,53.00
2022-12-18T23:04:48.154Z,51.83
2022-12-18T23:07:16.492Z,51.37
2022-12-18T23:09:44.180Z,52.17
2022-12-18T23:12:18.875Z,52.80
2022-12-18T23:14:47.368Z,57.80
2022-12-18T23:17:14.515Z,52.73
2022-12-18T23:19:47.095Z,52.17
2022-12-18T23:22:15.908Z,57.80
2022-12-18T23:24:42.994Z,55.07
2022-12-18T23:27:11.567Z,57.17
2022-12-18T23:29:39.947Z,58.60
2022-12-18T23:32:07.476Z,56.53
2022-12-18T23:34:34.888Z,56.50
2022-12-18T23:37:03.942Z,56.67
2022-12-18T23:39:31.536Z,54.70
2022-12-18T23:41:59.466Z,58.07
2022-12-18T23:44:26.961Z,53.87
2022-12-18T23:46:54.374Z,53.67
2022-12-18T23:49:21.649Z,56.67
2022-12-18T23:51:49.298Z,56.80
2022-12-18T23:54:16.599Z,58.77
2022-12-18T23:56:43.926Z,56.67
2022-12-18T23:59:11.264Z,55.13
